Time;durP1;ratioP1;P1;durP2;ratioP2;P2;SDS_P1;SDS_P2;PMS_P1;PMS_P2;Temp;Humidity;BMP_temperature;BMP_pressure;BME280_temperature;BME280_humidity;BME280_pressure;Samples;Min_cycle;Max_cycle;Signal;HPM_P1;HPM_P2
2023/06/17 00:00:06;;;;;;;13.47;7.20;;;24.50;66.40;;;;;;5043722;28;20485;-57
2023/06/17 00:02:33;;;;;;;11.07;7.20;;;24.50;66.40;;;;;;5047962;28;20449;-59
2023/06/17 00:05:02;;;;;;;8.93;7.27;;;24.40;66.20;;;;;;5048396;28;20462;-59
2023/06/17 00:07:28;;;;;;;14.17;7.03;;;24.40;66.20;;;;;;5047418;28;20613;-59
2023/06/17 00:09:55;;;;;;;13.60;7.20;;;24.40;66.20;;;;;;5050969;28;20462;-57
2023/06/17 00:12:24;;;;;;;10.77;7.60;;;24.40;66.20;;;;;;5043022;28;20467;-56
2023/06/17 00:14:51;;;;;;;14.17;7.83;;;24.40;66.20;;;;;;5047426;28;20481;-60
2023/06/17 00:17:17;;;;;;;12.50;7.00;;;24.40;66.30;;;;;;5044942;28;20458;-59
2023/06/17 00:19:44;;;;;;;14.17;7.93;;;24.40;66.30;;;;;;5054185;28;20462;-59
2023/06/17 00:22:13;;;;;;;10.53;6.67;;;24.40;66.30;;;;;;5054217;28;20895;-59
2023/06/17 00:24:40;;;;;;;13.17;7.60;;;24.40;66.30;;;;;;5049273;28;20478;-60
2023/06/17 00:27:06;;;;;;;11.67;7.00;;;24.40;66.30;;;;;;5047670;28;20457;-59
2023/06/17 00:29:33;;;;;;;12.90;8.67;;;24.40;66.30;;;;;;5042692;28;20462;-59
2023/06/17 00:32:01;;;;;;;11.87;6.87;;;24.40;66.30;;;;;;5043808;28;20462;-59
2023/06/17 00:34:28;;;;;;;11.90;6.93;;;24.40;66.30;;;;;;5049882;28;20481;-58
2023/06/17 00:36:55;;;;;;;14.23;8.50;;;24.40;66.40;;;;;;5048194;28;20799;-59
2023/06/17 00:39:23;;;;;;;11.33;6.40;;;24.40;66.40;;;;;;5047540;28;20456;-59
2023/06/17 00:41:49;;;;;;;10.03;6.60;;;24.40;66.40;;;;;;5038964;28;20462;-58
2023/06/17 00:44:16;;;;;;;12.63;7.97;;;24.40;66.40;;;;;;5044775;28;20455;-59
2023/06/17 00:46:48;;;;;;;9.73;7.10;;;24.40;66.40;;;;;;5044026;28;20470;-58
2023/06/17 00:49:15;;;;;;;10.57;7.00;;;24.40;66.40;;;;;;5042472;28;20454;-59
2023/06/17 00:51:42;;;;;;;12.73;6.87;;;24.40;66.40;;;;;;5046475;28;20902;-59
2023/06/17 00:54:09;;;;;;;9.43;6.97;;;24.40;66.40;;;;;;5049360;28;20481;-59
2023/06/17 00:56:38;;;;;;;10.17;5.73;;;24.40;66.40;;;;;;5045750;28;20504;-60
2023/06/17 00:59:05;;;;;;;10.70;6.97;;;24.40;66.40;;;;;;5042115;28;20462;-59
2023/06/17 01:01:35;;;;;;;11.00;7.00;;;24.40;66.40;;;;;;5045600;28;20569;-59
2023/06/17 01:04:04;;;;;;;9.63;5.97;;;24.40;66.50;;;;;;5040519;28;20466;-59
2023/06/17 01:06:37;;;;;;;9.37;7.77;;;24.40;66.50;;;;;;5047144;28;20549;-58
2023/06/17 01:09:11;;;;;;;12.40;7.60;;;24.40;66.50;;;;;;5048110;28;20454;-59
2023/06/17 01:11:40;;;;;;;9.70;6.93;;;24.40;66.50;;;;;;5047468;28;20459;-59
2023/06/17 01:14:10;;;;;;;10.47;6.93;;;24.40;66.50;;;;;;5048365;28;20509;-58
2023/06/17 01:16:42;;;;;;;10.23;7.00;;;24.40;66.50;;;;;;5043094;28;20454;-59
2023/06/17 01:19:18;;;;;;;13.90;8.10;;;24.40;66.50;;;;;;5044067;28;20493;-59
2023/06/17 01:21:48;;;;;;;8.53;6.43;;;24.40;66.50;;;;;;5043876;28;21025;-57
2023/06/17 01:24:25;;;;;;;10.53;6.87;;;24.40;66.50;;;;;;5048666;28;20516;-58
2023/06/17 01:26:55;;;;;;;10.77;7.20;;;24.40;66.50;;;;;;5048297;28;20452;-59
2023/06/17 01:29:22;;;;;;;13.83;6.97;;;24.40;66.50;;;;;;5038526;28;20987;-59
2023/06/17 01:31:50;;;;;;;11.90;7.27;;;24.40;66.50;;;;;;5056110;28;20452;-59
2023/06/17 01:34:19;;;;;;;7.90;6.20;;;24.40;66.50;;;;;;5050318;28;20844;-59
2023/06/17 01:36:49;;;;;;;10.80;7.13;;;24.40;66.50;;;;;;5047062;28;20462;-57
2023/06/17 01:39:19;;;;;;;8.77;6.43;;;24.40;66.50;;;;;;5044333;28;20965;-58
2023/06/17 01:41:50;;;;;;;9.70;6.70;;;24.40;66.50;;;;;;5044980;28;20519;-59
2023/06/17 01:44:17;;;;;;;8.87;6.50;;;24.40;67.30;;;;;;5044717;28;20829;-57
2023/06/17 01:46:43;;;;;;;9.50;6.40;;;24.40;66.50;;;;;;5050644;28;20492;-58
2023/06/17 01:49:10;;;;;;;10.97;6.40;;;24.30;66.50;;;;;;5046593;28;20473;-60
2023/06/17 01:51:37;;;;;;;12.40;6.80;;;24.40;66.60;;;;;;5048329;28;20467;-59
2023/06/17 01:54:04;;;;;;;9.13;6.23;;;24.30;66.50;;;;;;5048954;28;20482;-59
2023/06/17 01:56:31;;;;;;;9.03;6.60;;;24.30;66.50;;;;;;5045975;28;20450;-58
2023/06/17 01:58:59;;;;;;;7.70;5.90;;;24.30;66.50;;;;;;5040362;28;20508;-59
2023/06/17 02:01:26;;;;;;;10.53;6.20;;;24.30;66.50;;;;;;5046825;28;20496;-59
2023/06/17 02:03:53;;;;;;;11.10;6.63;;;24.30;66.50;;;;;;5033056;28;21043;-59
2023/06/17 02:06:20;;;;;;;10.00;5.87;;;24.30;66.50;;;;;;5045782;28;20455;-59
2023/06/17 02:08:47;;;;;;;10.20;6.60;;;24.30;66.60;;;;;;5033219;28;20463;-59
2023/06/17 02:11:14;;;;;;;9.17;6.20;;;24.30;66.60;;;;;;5036555;28;20462;-59
2023/06/17 02:13:41;;;;;;;8.20;5.90;;;24.30;66.60;;;;;;5037573;28;20540;-59
2023/06/17 02:16:09;;;;;;;10.80;6.27;;;24.40;66.70;;;;;;5039935;28;20876;-59
2023/06/17 02:18:35;;;;;;;6.40;5.47;;;24.30;66.60;;;;;;5040496;28;20466;-59
2023/06/17 02:21:02;;;;;;;10.43;6.30;;;24.30;66.60;;;;;;5052006;28;20455;-59
2023/06/17 02:23:29;;;;;;;9.57;6.50;;;24.30;66.70;;;;;;5053326;28;20531;-60
2023/06/17 02:25:56;;;;;;;9.37;5.93;;;24.30;66.70;;;;;;5045286;28;20462;-59
2023/06/17 02:28:23;;;;;;;9.93;6.60;;;24.40;66.80;;;;;;5043075;28;20458;-59
2023/06/17 02:30:49;;;;;;;10.57;6.77;;;24.30;66.70;;;;;;5045804;28;20450;-59
2023/06/17 02:33:18;;;;;;;9.17;6.67;;;24.30;66.70;;;;;;5040305;28;20455;-59
2023/06/17 02:35:44;;;;;;;10.77;6.07;;;24.30;66.70;;;;;;5048791;28;20529;-59
2023/06/17 02:38:13;;;;;;;9.37;6.90;;;24.30;66.80;;;;;;5045207;28;20497;-59
2023/06/17 02:40:39;;;;;;;8.90;5.97;;;24.30;66.80;;;;;;5041790;28;20803;-59
2023/06/17 02:43:07;;;;;;;8.87;6.03;;;24.30;66.80;;;;;;5041610;28;20458;-60
2023/06/17 02:45:33;;;;;;;9.13;5.40;;;24.30;67.10;;;;;;5043463;28;20466;-59
2023/06/17 02:48:00;;;;;;;10.57;7.20;;;24.30;66.70;;;;;;5040812;28;20506;-59
2023/06/17 02:50:28;;;;;;;9.80;5.93;;;24.30;66.80;;;;;;5045657;28;20545;-60
2023/06/17 02:52:56;;;;;;;7.97;6.20;;;24.30;66.80;;;;;;5050481;28;20461;-59
2023/06/17 02:55:25;;;;;;;11.63;6.83;;;24.30;66.80;;;;;;5045433;28;21046;-59
2023/06/17 02:57:51;;;;;;;9.47;7.40;;;24.30;66.80;;;;;;5041869;28;20980;-60
2023/06/17 03:00:18;;;;;;;7.90;5.80;;;24.30;66.90;;;;;;5039009;28;20460;-59
2023/06/17 03:02:45;;;;;;;7.70;5.00;;;24.30;66.80;;;;;;5049031;28;20485;-59
2023/06/17 03:05:12;;;;;;;7.30;5.73;;;24.30;66.80;;;;;;5045660;28;20461;-59
2023/06/17 03:07:40;;;;;;;10.43;6.17;;;24.30;66.80;;;;;;5041314;28;20462;-60
2023/06/17 03:10:08;;;;;;;8.03;5.00;;;24.30;66.80;;;;;;5041963;28;20509;-59
2023/06/17 03:12:35;;;;;;;7.07;5.43;;;24.30;66.90;;;;;;5052966;28;20469;-59
2023/06/17 03:15:02;;;;;;;9.87;6.47;;;24.30;66.90;;;;;;5044961;28;20513;-59
2023/06/17 03:17:29;;;;;;;8.03;5.90;;;24.30;66.90;;;;;;5052533;28;20517;-59
2023/06/17 03:19:56;;;;;;;6.73;5.37;;;24.30;66.90;;;;;;5043884;28;20461;-59
2023/06/17 03:22:23;;;;;;;9.20;5.97;;;24.30;66.90;;;;;;5049207;28;20551;-59
2023/06/17 03:24:51;;;;;;;7.60;5.23;;;24.30;66.90;;;;;;5043878;28;20487;-59
2023/06/17 03:27:18;;;;;;;7.30;5.37;;;24.30;67.00;;;;;;5046794;28;20536;-59
2023/06/17 03:29:45;;;;;;;5.87;5.27;;;24.30;66.90;;;;;;5045943;28;20468;-59
2023/06/17 03:32:11;;;;;;;8.50;5.63;;;24.30;67.00;;;;;;5045300;28;20489;-59
2023/06/17 03:34:38;;;;;;;7.90;6.00;;;24.30;67.00;;;;;;5041903;28;20990;-59
2023/06/17 03:37:05;;;;;;;7.73;5.50;;;24.30;67.00;;;;;;5051676;28;20472;-59
2023/06/17 03:39:32;;;;;;;8.40;5.27;;;24.30;67.00;;;;;;5045728;28;20461;-60
2023/06/17 03:42:00;;;;;;;8.13;5.37;;;24.30;67.00;;;;;;5046394;28;20469;-57
2023/06/17 03:44:27;;;;;;;8.37;5.20;;;24.30;67.00;;;;;;5046614;28;20489;-59
2023/06/17 03:46:53;;;;;;;8.60;5.63;;;24.30;67.00;;;;;;5048416;28;20454;-59
2023/06/17 03:49:20;;;;;;;8.00;5.70;;;24.30;67.00;;;;;;5042164;28;20461;-59
2023/06/17 03:51:47;;;;;;;7.97;5.83;;;24.30;67.00;;;;;;5044148;28;20519;-59
2023/06/17 03:54:14;;;;;;;6.13;4.77;;;24.30;67.00;;;;;;5044606;28;20482;-60
2023/06/17 03:56:41;;;;;;;9.00;4.83;;;24.30;67.10;;;;;;5042280;28;20771;-59
2023/06/17 03:59:10;;;;;;;7.00;5.13;;;24.30;67.10;;;;;;5041734;28;20457;-60
2023/06/17 04:01:38;;;;;;;7.23;5.87;;;24.30;67.10;;;;;;5043610;28;20500;-59
2023/06/17 04:04:04;;;;;;;7.40;4.93;;;24.30;67.10;;;;;;5043846;28;20454;-59
2023/06/17 04:06:31;;;;;;;6.73;5.37;;;24.30;67.10;;;;;;5051702;28;20488;-60
2023/06/17 04:08:58;;;;;;;6.00;4.37;;;24.30;67.10;;;;;;5051512;28;20810;-59
2023/06/17 04:11:24;;;;;;;7.90;5.67;;;24.30;67.20;;;;;;5046841;28;20834;-59
2023/06/17 04:13:51;;;;;;;6.63;5.30;;;24.30;67.10;;;;;;5038381;28;20465;-60
2023/06/17 04:16:19;;;;;;;7.90;5.30;;;24.30;67.20;;;;;;5047072;28;20489;-59
2023/06/17 04:18:46;;;;;;;6.67;5.50;;;24.30;67.20;;;;;;5049602;28;20475;-59
2023/06/17 04:21:13;;;;;;;8.27;5.40;;;24.30;67.10;;;;;;5049216;28;20469;-59
2023/06/17 04:23:40;;;;;;;8.83;4.87;;;24.30;67.10;;;;;;5045107;28;20477;-59
2023/06/17 04:26:07;;;;;;;7.07;4.83;;;24.20;67.10;;;;;;5046267;28;20466;-60
2023/06/17 04:28:34;;;;;;;7.43;5.27;;;24.30;67.20;;;;;;5052018;28;20458;-59
2023/06/17 04:31:01;;;;;;;8.10;5.33;;;24.30;67.20;;;;;;5044123;28;20516;-59
2023/06/17 04:33:30;;;;;;;6.90;5.20;;;24.20;67.10;;;;;;5045679;28;20531;-59
2023/06/17 04:35:57;;;;;;;7.70;5.90;;;24.20;67.10;;;;;;5053368;28;20482;-59
2023/06/17 04:38:24;;;;;;;6.53;5.30;;;24.20;67.10;;;;;;5050645;28;20481;-59
2023/06/17 04:40:52;;;;;;;6.03;5.00;;;24.20;67.10;;;;;;5043941;28;20454;-60
2023/06/17 04:43:20;;;;;;;5.90;4.67;;;24.20;67.10;;;;;;5043327;28;20515;-59
2023/06/17 04:45:47;;;;;;;5.23;4.47;;;24.20;67.10;;;;;;5049467;28;20540;-60
2023/06/17 04:48:14;;;;;;;9.23;5.20;;;24.20;67.10;;;;;;5044615;28;20473;-60
2023/06/17 04:50:43;;;;;;;7.57;5.50;;;24.20;67.10;;;;;;5048541;28;20536;-59
2023/06/17 04:53:10;;;;;;;6.23;4.20;;;24.20;67.20;;;;;;5045012;28;20889;-59
2023/06/17 04:55:37;;;;;;;6.70;4.70;;;24.20;67.20;;;;;;5047273;28;22831;-59
2023/06/17 04:58:04;;;;;;;8.73;5.30;;;24.20;67.20;;;;;;5051209;28;21146;-59
2023/06/17 05:00:31;;;;;;;6.80;6.10;;;24.20;67.20;;;;;;5044960;28;20463;-59
2023/06/17 05:02:58;;;;;;;5.30;4.80;;;24.20;67.20;;;;;;5048621;28;20481;-60
2023/06/17 05:05:24;;;;;;;7.17;4.60;;;24.20;67.20;;;;;;5039262;28;20537;-59
2023/06/17 05:07:52;;;;;;;8.80;5.57;;;24.20;67.20;;;;;;5045243;28;20458;-59
2023/06/17 05:10:19;;;;;;;8.20;6.40;;;24.20;67.20;;;;;;5052078;28;20799;-59
2023/06/17 05:12:46;;;;;;;8.60;5.70;;;24.20;67.20;;;;;;5049447;28;20473;-59
2023/06/17 05:15:12;;;;;;;7.67;4.53;;;24.20;67.20;;;;;;5043138;28;20530;-59
2023/06/17 05:17:39;;;;;;;6.90;5.30;;;24.20;67.20;;;;;;5043363;28;20512;-60
2023/06/17 05:20:07;;;;;;;5.30;4.60;;;24.20;67.20;;;;;;5050250;28;20984;-59
2023/06/17 05:22:33;;;;;;;5.83;4.87;;;24.20;67.30;;;;;;5045815;28;20461;-59
2023/06/17 05:25:01;;;;;;;7.00;5.53;;;24.20;67.20;;;;;;5043459;28;20539;-59
2023/06/17 05:27:28;;;;;;;6.60;4.70;;;24.20;67.20;;;;;;5048968;28;20473;-59
2023/06/17 05:29:55;;;;;;;6.57;4.60;;;24.20;67.30;;;;;;5047595;28;20458;-59
2023/06/17 05:32:22;;;;;;;7.47;5.07;;;24.20;67.20;;;;;;5052368;28;20711;-60
2023/06/17 05:34:49;;;;;;;6.20;5.23;;;24.20;67.20;;;;;;5048798;28;21019;-59
2023/06/17 05:37:16;;;;;;;6.00;4.87;;;24.20;67.30;;;;;;5044104;28;20485;-59
2023/06/17 05:39:42;;;;;;;8.17;5.03;;;24.20;67.30;;;;;;5038529;28;20869;-59
2023/06/17 05:42:12;;;;;;;9.90;5.67;;;24.20;67.30;;;;;;5043151;28;20476;-59
2023/06/17 05:44:39;;;;;;;7.03;4.87;;;24.20;67.30;;;;;;5049098;28;20458;-59
2023/06/17 05:47:06;;;;;;;5.60;4.40;;;24.20;67.30;;;;;;5046867;28;20503;-59
2023/06/17 05:49:33;;;;;;;6.30;4.80;;;24.20;67.30;;;;;;5047794;28;20505;-59
2023/06/17 05:51:59;;;;;;;5.77;5.07;;;24.20;68.20;;;;;;5043068;28;20868;-59
2023/06/17 05:54:26;;;;;;;5.30;4.07;;;24.20;67.40;;;;;;5045340;28;20473;-59
2023/06/17 05:56:53;;;;;;;4.87;4.37;;;24.20;68.20;;;;;;5040418;28;20531;-60
2023/06/17 05:59:21;;;;;;;10.23;4.70;;;24.20;67.30;;;;;;5033803;28;21093;-60
2023/06/17 06:01:47;;;;;;;7.23;5.10;;;24.20;67.40;;;;;;5045147;28;20993;-59
2023/06/17 06:04:14;;;;;;;8.43;4.73;;;24.20;67.40;;;;;;5043632;28;20516;-59
2023/06/17 06:06:41;;;;;;;6.50;5.33;;;24.20;67.40;;;;;;5046837;28;20832;-59
2023/06/17 06:09:07;;;;;;;5.80;5.10;;;24.20;67.50;;;;;;5042473;28;20816;-59
2023/06/17 06:11:34;;;;;;;4.50;3.80;;;24.20;67.40;;;;;;5049537;28;20470;-59
2023/06/17 06:14:01;;;;;;;5.90;5.00;;;24.20;67.50;;;;;;5050849;28;20559;-59
2023/06/17 06:16:29;;;;;;;5.07;4.40;;;24.20;67.50;;;;;;5044990;28;20478;-59
2023/06/17 06:18:56;;;;;;;7.30;5.47;;;24.20;67.40;;;;;;5054893;28;20469;-59
2023/06/17 06:21:22;;;;;;;5.57;4.33;;;24.20;67.50;;;;;;5042754;28;20465;-60
2023/06/17 06:23:49;;;;;;;5.83;4.20;;;24.20;67.50;;;;;;5055580;28;20506;-59
2023/06/17 06:26:16;;;;;;;6.30;5.20;;;24.20;68.30;;;;;;5042601;28;20531;-59
2023/06/17 06:28:42;;;;;;;6.40;4.70;;;24.20;67.50;;;;;;5048254;28;20490;-59
2023/06/17 06:31:10;;;;;;;6.93;4.77;;;24.20;67.60;;;;;;5035792;28;20549;-57
2023/06/17 06:33:38;;;;;;;6.17;5.10;;;24.20;67.50;;;;;;5041847;28;20590;-57
2023/06/17 06:36:05;;;;;;;5.47;4.97;;;24.20;67.50;;;;;;5041717;28;20481;-59
2023/06/17 06:38:32;;;;;;;5.37;3.97;;;24.20;67.80;;;;;;5040180;28;20461;-60
2023/06/17 06:40:58;;;;;;;6.00;5.23;;;24.20;69.10;;;;;;5044911;28;20517;-60
2023/06/17 06:43:25;;;;;;;6.50;5.60;;;24.20;68.20;;;;;;5041264;28;20876;-60
2023/06/17 06:45:51;;;;;;;5.30;4.80;;;24.20;66.60;;;;;;5044958;28;20462;-60
2023/06/17 06:48:18;;;;;;;5.43;4.93;;;24.10;65.40;;;;;;5040377;28;20458;-59
2023/06/17 06:50:46;;;;;;;5.57;4.87;;;24.10;64.90;;;;;;5050563;28;20961;-59
2023/06/17 06:53:13;;;;;;;8.03;5.10;;;24.10;64.10;;;;;;5042076;28;20458;-58
2023/06/17 06:55:40;;;;;;;6.80;4.83;;;24.00;63.60;;;;;;5048055;28;20485;-58
2023/06/17 06:58:06;;;;;;;6.07;5.47;;;24.00;63.40;;;;;;5038798;28;20486;-59
2023/06/17 07:00:33;;;;;;;6.27;4.60;;;24.00;63.40;;;;;;5045608;28;20459;-59
2023/06/17 07:03:00;;;;;;;5.27;4.87;;;24.00;62.90;;;;;;5042753;28;20815;-59
2023/06/17 07:05:28;;;;;;;7.13;5.20;;;24.00;62.70;;;;;;5044316;28;20837;-59
2023/06/17 07:07:56;;;;;;;5.57;5.13;;;24.00;62.30;;;;;;5045428;28;20954;-58
2023/06/17 07:10:23;;;;;;;4.90;4.40;;;23.90;62.10;;;;;;5047425;28;20522;-59
2023/06/17 07:12:49;;;;;;;5.87;4.63;;;23.90;62.30;;;;;;5042842;28;20548;-59
2023/06/17 07:15:16;;;;;;;5.80;3.70;;;23.90;62.40;;;;;;5041132;28;20528;-56
2023/06/17 07:17:43;;;;;;;6.83;4.20;;;23.90;62.50;;;;;;5045330;28;20450;-59
2023/06/17 07:20:10;;;;;;;4.90;4.17;;;23.90;62.50;;;;;;5041293;28;20465;-58
2023/06/17 07:22:37;;;;;;;6.80;4.70;;;23.90;62.60;;;;;;5042334;28;20996;-59
2023/06/17 07:25:06;;;;;;;7.40;5.20;;;23.90;62.60;;;;;;5044646;28;20469;-59
2023/06/17 07:27:32;;;;;;;6.93;4.70;;;23.90;63.10;;;;;;5041394;28;20461;-59
2023/06/17 07:29:59;;;;;;;5.67;5.10;;;24.00;63.20;;;;;;5044237;28;20461;-58
2023/06/17 07:32:27;;;;;;;8.67;5.07;;;24.00;63.10;;;;;;5045362;28;20534;-59
2023/06/17 07:34:54;;;;;;;5.10;4.60;;;24.00;63.40;;;;;;5042342;28;20462;-56
2023/06/17 07:37:21;;;;;;;4.43;4.03;;;24.00;63.50;;;;;;5044567;28;20928;-58
2023/06/17 07:39:47;;;;;;;5.93;5.43;;;24.00;63.60;;;;;;5048716;28;20462;-59
2023/06/17 07:42:16;;;;;;;4.60;4.20;;;24.00;63.80;;;;;;5038714;28;20962;-57
2023/06/17 07:44:44;;;;;;;4.53;4.23;;;24.00;63.90;;;;;;5050577;28;20468;-59
2023/06/17 07:47:11;;;;;;;7.40;4.73;;;24.00;63.90;;;;;;5047294;28;20469;-59
2023/06/17 07:49:38;;;;;;;7.53;5.33;;;24.00;63.70;;;;;;5048871;28;20461;-57
2023/06/17 07:52:06;;;;;;;4.50;4.10;;;24.00;63.50;;;;;;5048012;28;20532;-58
2023/06/17 07:54:35;;;;;;;8.57;5.20;;;24.00;63.40;;;;;;5044696;28;20459;-59
2023/06/17 07:57:02;;;;;;;4.93;4.43;;;24.00;63.40;;;;;;5047416;28;20473;-59
2023/06/17 07:59:30;;;;;;;5.23;4.80;;;24.00;63.40;;;;;;5050025;28;20465;-59
2023/06/17 08:01:57;;;;;;;4.87;4.37;;;24.00;63.40;;;;;;5045675;28;20533;-59
2023/06/17 08:04:23;;;;;;;4.63;3.80;;;24.00;63.40;;;;;;5046452;28;20458;-60
2023/06/17 08:06:51;;;;;;;5.77;5.17;;;24.00;63.40;;;;;;5047478;28;20474;-60
2023/06/17 08:09:17;;;;;;;4.80;4.40;;;24.00;63.40;;;;;;5049136;28;20449;-60
2023/06/17 08:11:44;;;;;;;6.63;4.50;;;24.00;63.40;;;;;;5044775;28;20457;-59
2023/06/17 08:14:10;;;;;;;5.70;4.20;;;24.00;63.50;;;;;;5041704;28;20841;-57
2023/06/17 08:16:38;;;;;;;5.17;4.43;;;24.00;63.50;;;;;;5051084;28;20999;-60
2023/06/17 08:19:05;;;;;;;4.90;4.20;;;24.00;63.50;;;;;;5048439;28;20461;-58
2023/06/17 08:21:34;;;;;;;5.33;4.80;;;24.00;63.50;;;;;;5049129;28;20457;-59
2023/06/17 08:24:16;;;;;;;5.30;4.80;;;24.00;63.40;;;;;;5045990;28;20501;-60
2023/06/17 08:26:43;;;;;;;5.23;4.30;;;24.00;63.50;;;;;;5046047;28;20481;-60
2023/06/17 08:29:10;;;;;;;5.70;4.13;;;24.00;63.50;;;;;;5051524;28;20456;-59
2023/06/17 08:31:38;;;;;;;9.00;5.00;;;24.00;63.60;;;;;;5050015;28;20446;-59
2023/06/17 08:34:05;;;;;;;6.50;4.60;;;24.00;63.60;;;;;;5044208;28;20455;-59
2023/06/17 08:36:32;;;;;;;4.33;3.87;;;24.00;63.60;;;;;;5041366;28;20485;-60
2023/06/17 08:38:59;;;;;;;4.67;4.27;;;24.00;63.70;;;;;;5048798;28;20505;-60
2023/06/17 08:41:27;;;;;;;8.53;5.10;;;24.00;63.60;;;;;;5037815;28;20512;-60
2023/06/17 08:43:57;;;;;;;7.10;4.23;;;24.00;63.60;;;;;;5037091;28;20532;-59
2023/06/17 08:46:26;;;;;;;4.47;4.00;;;24.00;63.40;;;;;;5041647;28;20459;-59
2023/06/17 08:48:55;;;;;;;6.33;4.30;;;24.00;63.30;;;;;;5040170;28;20480;-60
2023/06/17 08:51:22;;;;;;;4.93;4.43;;;24.00;63.20;;;;;;5040918;28;20827;-58
2023/06/17 08:53:51;;;;;;;5.23;4.73;;;24.00;63.50;;;;;;5038459;28;20984;-59
2023/06/17 08:56:18;;;;;;;5.57;4.20;;;24.00;63.70;;;;;;5044423;28;20825;-59
2023/06/17 08:58:45;;;;;;;5.27;4.87;;;24.00;63.60;;;;;;5046378;28;20438;-57
2023/06/17 09:01:12;;;;;;;4.73;4.33;;;24.00;63.50;;;;;;5034805;28;20485;-59
2023/06/17 09:03:41;;;;;;;6.50;4.63;;;24.00;63.50;;;;;;5042518;28;20799;-57
2023/06/17 09:06:18;;;;;;;4.60;4.20;;;24.00;63.40;;;;;;5048875;28;20480;-57
2023/06/17 09:08:45;;;;;;;4.60;4.07;;;24.00;63.40;;;;;;5044423;28;20453;-56
2023/06/17 09:11:12;;;;;;;4.60;4.20;;;24.00;63.20;;;;;;5037277;28;20549;-57
2023/06/17 09:13:39;;;;;;;4.80;4.40;;;24.00;62.90;;;;;;5045975;28;20468;-54
2023/06/17 09:16:06;;;;;;;4.80;4.40;;;24.00;62.50;;;;;;5040704;28;20470;-53
2023/06/17 09:18:33;;;;;;;7.93;5.20;;;24.00;62.30;;;;;;5044070;28;20477;-56
2023/06/17 09:21:02;;;;;;;4.53;4.13;;;24.00;62.80;;;;;;5040215;28;20520;-55
2023/06/17 09:23:30;;;;;;;7.90;4.80;;;24.00;61.70;;;;;;5038150;28;20474;-59
2023/06/17 09:26:03;;;;;;;4.97;4.40;;;24.00;61.40;;;;;;5046551;28;20465;-55
2023/06/17 09:28:30;;;;;;;4.30;3.90;;;24.00;60.90;;;;;;5036454;28;20462;-54
2023/06/17 09:30:59;;;;;;;4.40;4.00;;;24.00;60.90;;;;;;5040572;28;20466;-55
2023/06/17 09:33:27;;;;;;;4.30;3.90;;;24.00;60.60;;;;;;5040815;28;20454;-53
2023/06/17 09:35:59;;;;;;;5.30;4.63;;;24.00;60.50;;;;;;5046592;28;20512;-55
2023/06/17 09:38:27;;;;;;;4.53;4.13;;;24.00;60.40;;;;;;5043275;28;20469;-56
2023/06/17 09:40:55;;;;;;;4.23;3.90;;;24.00;60.40;;;;;;5045487;28;20469;-55
2023/06/17 09:43:24;;;;;;;3.90;3.57;;;24.00;60.40;;;;;;5049622;28;20465;-55
2023/06/17 09:45:55;;;;;;;4.50;4.10;;;24.00;60.40;;;;;;5044209;28;20545;-55
2023/06/17 09:48:24;;;;;;;4.50;4.10;;;24.00;60.50;;;;;;5043119;28;20463;-55
2023/06/17 09:50:55;;;;;;;5.60;4.57;;;24.00;60.70;;;;;;5045444;28;20461;-56
2023/06/17 09:53:23;;;;;;;4.60;4.20;;;24.00;60.90;;;;;;5043584;28;20462;-56
2023/06/17 09:55:55;;;;;;;4.10;3.80;;;24.00;61.30;;;;;;5048223;28;20461;-55
2023/06/17 09:58:24;;;;;;;5.10;4.33;;;24.00;61.60;;;;;;5038443;28;20608;-54
2023/06/17 10:00:52;;;;;;;4.90;4.50;;;24.00;61.90;;;;;;5040680;28;20450;-55
2023/06/17 10:03:19;;;;;;;5.00;4.60;;;24.00;62.00;;;;;;5040846;28;20461;-55
2023/06/17 10:05:53;;;;;;;4.83;4.33;;;24.00;62.20;;;;;;5048333;28;20466;-56
2023/06/17 10:08:21;;;;;;;4.10;3.70;;;24.00;62.20;;;;;;5044432;28;20465;-54
2023/06/17 10:10:49;;;;;;;5.20;4.10;;;24.00;62.30;;;;;;5040894;28;21001;-55
2023/06/17 10:13:19;;;;;;;4.57;4.17;;;24.10;62.40;;;;;;5041424;28;20954;-56
2023/06/17 10:15:48;;;;;;;6.03;4.53;;;24.00;62.40;;;;;;5047331;28;20461;-56
2023/06/17 10:18:16;;;;;;;3.80;3.50;;;24.10;62.60;;;;;;5048602;28;21359;-55
2023/06/17 10:20:45;;;;;;;4.50;4.10;;;24.10;62.60;;;;;;5044392;28;20458;-59
2023/06/17 10:23:13;;;;;;;4.87;4.33;;;24.10;62.90;;;;;;5044943;28;21511;-54
2023/06/17 10:25:40;;;;;;;4.93;4.53;;;24.10;62.90;;;;;;5046731;28;20516;-56
2023/06/17 10:28:07;;;;;;;4.93;4.43;;;24.10;62.90;;;;;;5036539;28;20515;-55
2023/06/17 10:30:35;;;;;;;4.93;4.53;;;24.10;63.20;;;;;;5037059;28;20461;-54
2023/06/17 10:33:04;;;;;;;5.73;3.60;;;24.10;63.00;;;;;;5048687;28;20466;-55
2023/06/17 10:35:38;;;;;;;4.60;4.10;;;24.10;63.10;;;;;;5044379;28;20459;-55
2023/06/17 10:38:04;;;;;;;4.63;4.20;;;24.10;63.20;;;;;;5044556;28;21032;-52
2023/06/17 10:40:35;;;;;;;4.57;4.20;;;24.10;63.20;;;;;;5043179;28;20453;-54
2023/06/17 10:43:19;;;;;;;5.40;3.43;;;24.10;63.10;;;;;;5046380;28;20462;-54
2023/06/17 10:45:50;;;;;;;4.00;3.70;;;24.10;63.30;;;;;;5040765;28;20461;-55
2023/06/17 10:48:25;;;;;;;5.33;4.83;;;24.10;63.10;;;;;;5040042;28;20565;-57
2023/06/17 10:50:53;;;;;;;3.77;3.47;;;24.10;63.00;;;;;;5050295;28;20821;-54
2023/06/17 10:53:28;;;;;;;5.53;3.90;;;24.10;64.00;;;;;;5046453;28;20887;-54
2023/06/17 10:55:56;;;;;;;4.17;3.83;;;24.10;63.40;;;;;;5050099;28;20803;-57
2023/06/17 10:58:23;;;;;;;4.43;3.57;;;24.10;63.20;;;;;;5041725;28;20482;-54
2023/06/17 11:00:59;;;;;;;4.60;4.20;;;24.20;63.40;;;;;;5038234;28;20516;-58
2023/06/17 11:03:27;;;;;;;4.17;3.77;;;24.20;63.40;;;;;;5036721;28;20461;-54
2023/06/17 11:05:54;;;;;;;4.03;3.53;;;24.20;63.70;;;;;;5045226;28;20827;-58
2023/06/17 11:08:20;;;;;;;4.67;4.13;;;24.20;63.90;;;;;;5040830;28;20466;-54
2023/06/17 11:10:47;;;;;;;3.90;3.50;;;24.20;63.70;;;;;;5045998;28;20470;-53
2023/06/17 11:13:13;;;;;;;3.77;3.47;;;24.20;63.70;;;;;;5043432;28;20466;-55
2023/06/17 11:15:40;;;;;;;4.63;4.17;;;24.20;63.60;;;;;;5041373;28;20459;-54
2023/06/17 11:18:07;;;;;;;3.50;3.30;;;24.20;63.80;;;;;;5049048;28;20551;-54
2023/06/17 11:20:36;;;;;;;5.50;3.97;;;24.20;63.70;;;;;;5046340;28;20541;-53
2023/06/17 11:23:04;;;;;;;5.70;4.30;;;24.20;63.50;;;;;;5048171;28;20453;-54
2023/06/17 11:25:31;;;;;;;4.10;3.70;;;24.20;63.40;;;;;;5052287;28;20516;-52
2023/06/17 11:27:58;;;;;;;4.40;4.00;;;24.20;63.40;;;;;;5048417;28;20860;-52
2023/06/17 11:30:27;;;;;;;4.13;3.77;;;24.20;63.40;;;;;;5042723;28;20861;-55
2023/06/17 11:32:54;;;;;;;5.97;4.27;;;24.20;63.30;;;;;;5048768;28;20453;-54
2023/06/17 11:35:21;;;;;;;5.10;4.13;;;24.20;63.40;;;;;;5040874;28;20461;-54
2023/06/17 11:37:50;;;;;;;4.83;3.87;;;24.20;63.40;;;;;;5040857;28;20831;-53
2023/06/17 11:40:18;;;;;;;4.90;3.23;;;24.20;63.40;;;;;;5041196;28;20822;-54
2023/06/17 11:42:46;;;;;;;4.60;4.20;;;24.20;63.40;;;;;;5044930;28;20458;-55
2023/06/17 11:45:14;;;;;;;4.67;4.30;;;24.20;63.40;;;;;;5043191;28;20553;-54
2023/06/17 11:47:41;;;;;;;4.10;3.77;;;24.20;63.50;;;;;;5042602;28;20861;-53
2023/06/17 11:50:09;;;;;;;4.10;3.70;;;24.20;63.40;;;;;;5032306;28;20596;-51
2023/06/17 11:52:36;;;;;;;5.50;3.90;;;24.20;63.70;;;;;;5047803;28;20537;-56
2023/06/17 11:55:05;;;;;;;7.23;4.67;;;24.20;63.70;;;;;;5047113;28;20481;-58
2023/06/17 11:57:32;;;;;;;3.93;3.63;;;24.20;64.40;;;;;;5038571;28;20484;-51
2023/06/17 12:00:05;;;;;;;3.67;3.30;;;24.20;63.70;;;;;;5044021;28;20457;-53
2023/06/17 12:02:34;;;;;;;4.13;3.80;;;24.20;63.70;;;;;;5047218;28;20477;-55
2023/06/17 12:05:02;;;;;;;3.63;3.30;;;24.20;63.70;;;;;;5041914;28;20962;-51
2023/06/17 12:07:29;;;;;;;3.40;3.20;;;24.20;63.90;;;;;;5045780;28;20470;-54
2023/06/17 12:09:56;;;;;;;5.00;3.87;;;24.20;63.80;;;;;;5040480;28;20472;-54
2023/06/17 12:12:30;;;;;;;3.73;3.43;;;24.20;63.90;;;;;;5045188;28;20458;-54
2023/06/17 12:15:03;;;;;;;4.30;3.87;;;24.20;63.70;;;;;;5043895;28;20949;-55
2023/06/17 12:17:37;;;;;;;4.40;4.00;;;24.20;63.50;;;;;;5043642;28;20486;-55
2023/06/17 12:20:05;;;;;;;5.13;4.73;;;24.20;63.60;;;;;;5040217;28;20457;-55
2023/06/17 12:22:32;;;;;;;4.30;3.60;;;24.30;63.70;;;;;;5042511;28;20465;-56
2023/06/17 12:24:59;;;;;;;4.00;3.70;;;24.30;63.50;;;;;;5042215;28;20483;-52
2023/06/17 12:27:31;;;;;;;5.70;3.70;;;24.30;63.50;;;;;;5044588;28;20564;-54
2023/06/17 12:30:00;;;;;;;5.13;4.03;;;24.30;63.50;;;;;;5044207;28;20463;-57
2023/06/17 12:32:27;;;;;;;4.97;4.00;;;24.20;63.40;;;;;;5044534;28;20958;-56
2023/06/17 12:34:54;;;;;;;5.10;4.10;;;24.30;63.50;;;;;;5043297;28;20519;-51
2023/06/17 12:37:24;;;;;;;8.53;4.67;;;24.30;63.50;;;;;;5045119;28;20474;-55
2023/06/17 12:39:52;;;;;;;6.27;4.60;;;24.30;63.50;;;;;;5045521;28;20461;-52
2023/06/17 12:42:19;;;;;;;4.97;3.93;;;24.30;63.50;;;;;;5044742;28;20454;-54
2023/06/17 12:44:47;;;;;;;5.30;4.00;;;24.30;63.50;;;;;;5043583;28;20465;-54
2023/06/17 12:47:14;;;;;;;10.50;4.60;;;24.30;63.70;;;;;;5043750;28;20469;-54